createdAt,value
2019-02-19T00:01:19.061Z,1.57
2019-02-19T00:06:28.662Z,1.44
2019-02-19T00:11:38.327Z,1.52
2019-02-19T00:16:47.915Z,1.45
2019-02-19T00:21:57.378Z,1.29
2019-02-19T00:27:06.934Z,1.10
2019-02-19T00:32:31.927Z,1.08
2019-02-19T00:37:21.381Z,1.12
2019-02-19T00:42:33.131Z,1.17
2019-02-19T00:47:32.654Z,1.23
2019-02-19T00:52:42.191Z,1.16
2019-02-19T00:57:51.904Z,1.56
2019-02-19T01:03:01.363Z,1.13
2019-02-19T01:08:10.962Z,1.52
2019-02-19T01:13:20.430Z,1.47
2019-02-19T01:18:29.983Z,1.19
2019-02-19T01:23:39.426Z,1.15
2019-02-19T01:28:49.330Z,1.16
2019-02-19T01:33:58.783Z,1.56
2019-02-19T01:39:08.327Z,1.29
2019-02-19T01:44:18.334Z,1.30
2019-02-19T01:49:17.820Z,2.10
2019-02-19T01:54:27.275Z,1.31
2019-02-19T01:59:36.862Z,1.25
2019-02-19T02:04:46.321Z,1.71
2019-02-19T02:09:55.824Z,1.43
2019-02-19T02:15:05.279Z,1.00
2019-02-19T02:20:20.055Z,0.91
2019-02-19T02:25:19.432Z,0.99
2019-02-19T02:30:29.228Z,0.76
2019-02-19T02:35:38.692Z,1.10
2019-02-19T02:40:48.322Z,1.10
2019-02-19T02:45:57.768Z,1.13
2019-02-19T02:51:07.288Z,0.90
2019-02-19T02:56:16.762Z,1.34
2019-02-19T03:01:26.315Z,0.94
2019-02-19T03:06:35.743Z,1.18
2019-02-19T03:11:45.595Z,0.79
2019-02-19T03:16:54.732Z,0.69
2019-02-19T03:22:04.288Z,0.68
2019-02-19T03:27:13.712Z,0.79
2019-02-19T03:32:23.474Z,0.77
2019-02-19T03:37:33.007Z,0.64
2019-02-19T03:42:42.673Z,1.27
2019-02-19T03:47:52.092Z,1.07
2019-02-19T03:53:01.626Z,0.91
2019-02-19T03:58:11.139Z,1.15
2019-02-19T04:03:20.707Z,1.29
2019-02-19T04:08:30.168Z,0.65
2019-02-19T04:13:39.673Z,0.66
2019-02-19T04:18:49.123Z,0.59
2019-02-19T04:23:58.691Z,0.83
2019-02-19T04:29:08.126Z,0.86
2019-02-19T04:34:17.679Z,0.92
2019-02-19T04:39:27.147Z,1.13
2019-02-19T04:44:36.706Z,1.33
2019-02-19T04:49:46.251Z,0.80
2019-02-19T04:54:56.070Z,1.08
2019-02-19T05:00:05.532Z,0.53
2019-02-19T05:05:15.096Z,0.66
2019-02-19T05:10:24.525Z,0.65
2019-02-19T05:15:34.065Z,1.09
2019-02-19T05:20:43.523Z,0.74
2019-02-19T05:25:53.095Z,0.69
2019-02-19T05:31:02.558Z,0.71
2019-02-19T05:36:12.169Z,0.54
2019-02-19T05:41:21.634Z,0.87
2019-02-19T05:46:31.233Z,0.57
2019-02-19T05:51:40.727Z,0.91
2019-02-19T05:56:50.680Z,0.74
2019-02-19T06:02:00.139Z,0.70
2019-02-19T06:07:09.735Z,0.89
2019-02-19T06:12:19.247Z,0.87
2019-02-19T06:17:28.792Z,1.27
2019-02-19T06:22:38.266Z,1.23
2019-02-19T06:27:47.851Z,0.97
2019-02-19T06:32:57.406Z,1.07
2019-02-19T06:38:06.950Z,1.05
2019-02-19T06:43:16.415Z,0.96
2019-02-19T06:48:25.982Z,1.12
2019-02-19T06:53:35.442Z,0.84
2019-02-19T06:58:45.051Z,0.74
2019-02-19T07:04:09.718Z,1.27
2019-02-19T07:08:58.751Z,0.82
2019-02-19T07:14:07.957Z,1.13
2019-02-19T07:19:17.335Z,0.80
2019-02-19T07:24:26.390Z,0.80
2019-02-19T07:29:35.507Z,0.86
2019-02-19T07:34:44.589Z,0.96
2019-02-19T07:39:53.982Z,0.96
2019-02-19T07:45:03.058Z,1.31
2019-02-19T07:50:12.283Z,0.98
2019-02-19T07:55:21.322Z,0.82
2019-02-19T08:00:30.447Z,0.88
2019-02-19T08:05:39.554Z,0.98
2019-02-19T08:10:48.703Z,1.07
2019-02-19T08:15:57.879Z,1.02
2019-02-19T08:21:07.796Z,0.71
2019-02-19T08:26:16.833Z,0.80
2019-02-19T08:31:25.906Z,0.55
2019-02-19T08:36:35.153Z,0.70
2019-02-19T08:41:46.531Z,0.72
2019-02-19T08:46:53.201Z,0.81
2019-02-19T08:52:06.101Z,1.01
2019-02-19T08:57:05.128Z,1.40
2019-02-19T09:02:14.290Z,0.99
2019-02-19T09:07:23.951Z,1.17
2019-02-19T09:12:36.165Z,1.35
2019-02-19T09:17:35.171Z,1.29
2019-02-19T09:22:47.966Z,0.96
2019-02-19T09:27:46.984Z,1.23
2019-02-19T09:32:56.395Z,0.91
2019-02-19T09:38:05.476Z,1.27
2019-02-19T09:43:14.718Z,1.03
2019-02-19T09:48:23.834Z,1.27
2019-02-19T09:53:33.102Z,1.26
2019-02-19T09:58:42.182Z,1.18
2019-02-19T10:03:51.569Z,1.20
2019-02-19T10:09:00.684Z,1.30
2019-02-19T10:14:10.337Z,1.21
2019-02-19T10:19:19.462Z,1.16
2019-02-19T10:24:28.714Z,1.26
2019-02-19T10:29:49.705Z,0.92
2019-02-19T10:34:38.819Z,0.99
2019-02-19T10:39:48.055Z,0.94
2019-02-19T10:44:57.133Z,0.78
2019-02-19T10:50:06.913Z,0.83
2019-02-19T10:55:19.483Z,0.81
2019-02-19T11:00:18.562Z,0.80
2019-02-19T11:05:27.685Z,0.95
2019-02-19T11:10:37.883Z,1.18
2019-02-19T11:15:37.182Z,0.91
2019-02-19T11:20:48.434Z,1.00
2019-02-19T11:25:47.537Z,1.41
2019-02-19T11:30:56.602Z,2.91
2019-02-19T11:36:05.785Z,3.27
2019-02-19T11:41:14.907Z,6.00
2019-02-19T11:46:24.091Z,14.57
2019-02-19T11:51:33.382Z,5.86
2019-02-19T11:56:42.563Z,4.68
2019-02-19T12:01:51.811Z,5.94
2019-02-19T12:07:03.094Z,4.03
2019-02-19T12:12:02.206Z,1.93
2019-02-19T12:17:10.116Z,11.80
2019-02-19T12:22:31.174Z,3.89
2019-02-19T12:27:20.410Z,2.65
2019-02-19T12:32:29.681Z,4.11
2019-02-19T12:37:39.124Z,2.46
2019-02-19T12:42:48.265Z,2.42
2019-02-19T12:47:57.382Z,1.54
2019-02-19T12:53:06.689Z,1.22
2019-02-19T12:58:15.853Z,1.56
2019-02-19T13:03:25.082Z,1.17
2019-02-19T13:08:34.250Z,1.08
2019-02-19T13:13:43.483Z,1.09
2019-02-19T13:18:52.968Z,1.01
2019-02-19T13:24:02.067Z,1.05
2019-02-19T13:29:11.186Z,1.08
2019-02-19T13:34:20.417Z,1.13
2019-02-19T13:39:29.710Z,1.29
2019-02-19T13:44:38.785Z,0.73
2019-02-19T13:49:48.059Z,2.14
2019-02-19T13:54:57.358Z,0.85
2019-02-19T14:00:07.840Z,0.90
2019-02-19T14:05:18.674Z,0.82
2019-02-19T14:10:11.978Z,0.70
2019-02-19T14:15:11.047Z,0.67
2019-02-19T14:20:23.766Z,0.55
2019-02-19T14:25:22.792Z,0.83
2019-02-19T14:30:32.108Z,0.50
2019-02-19T14:35:41.132Z,0.67
2019-02-19T14:40:50.306Z,0.82
2019-02-19T14:45:59.394Z,0.73
2019-02-19T14:51:10.716Z,0.64
2019-02-19T14:56:09.711Z,1.04
2019-02-19T15:01:18.806Z,0.89
2019-02-19T15:06:27.859Z,0.58
2019-02-19T15:11:37.012Z,0.60
2019-02-19T15:16:46.146Z,0.49
2019-02-19T15:21:55.454Z,0.62
2019-02-19T15:27:04.578Z,0.56
2019-02-19T15:32:14.152Z,0.59
2019-02-19T15:37:23.214Z,0.49
2019-02-19T15:42:32.326Z,0.52
2019-02-19T15:47:41.565Z,0.54
2019-02-19T15:52:50.971Z,0.86
2019-02-19T15:58:04.672Z,0.65
2019-02-19T16:03:09.066Z,0.46
2019-02-19T16:08:18.142Z,0.46
2019-02-19T16:13:27.278Z,0.37
2019-02-19T16:18:36.367Z,0.36
2019-02-19T16:23:48.622Z,0.52
2019-02-19T16:28:47.687Z,0.65
2019-02-19T16:33:57.920Z,0.41
2019-02-19T16:38:59.030Z,0.32
2019-02-19T16:44:07.173Z,0.37
2019-02-19T16:49:06.131Z,0.39
2019-02-19T16:54:15.334Z,0.67
2019-02-19T16:59:24.430Z,0.31
2019-02-19T17:04:33.631Z,0.32
2019-02-19T17:09:43.103Z,0.40
2019-02-19T17:14:52.112Z,0.49
2019-02-19T17:20:01.671Z,0.73
2019-02-19T17:25:13.406Z,0.56
2019-02-19T17:30:12.471Z,0.64
2019-02-19T17:35:22.956Z,0.61
2019-02-19T17:40:22.007Z,0.56
2019-02-19T17:45:31.129Z,0.64
2019-02-19T17:50:41.225Z,0.53
2019-02-19T17:55:42.817Z,0.78
2019-02-19T18:00:41.962Z,0.49
2019-02-19T18:05:51.135Z,0.61
2019-02-19T18:11:12.142Z,0.71
2019-02-19T18:16:01.219Z,0.70
2019-02-19T18:21:10.312Z,0.56
2019-02-19T18:26:20.576Z,0.69
2019-02-19T18:31:19.771Z,0.63
2019-02-19T18:36:28.925Z,0.56
2019-02-19T18:41:38.014Z,0.38
2019-02-19T18:46:47.675Z,0.47
2019-02-19T18:51:56.786Z,0.36
2019-02-19T18:57:06.491Z,0.28
2019-02-19T19:02:16.473Z,0.34
2019-02-19T19:07:25.732Z,0.49
2019-02-19T19:12:34.952Z,0.39
2019-02-19T19:17:44.353Z,0.54
2019-02-19T19:22:53.955Z,0.41
2019-02-19T19:28:03.859Z,0.33
2019-02-19T19:33:12.875Z,0.33
2019-02-19T19:38:21.999Z,0.34
2019-02-19T19:43:44.257Z,0.49
2019-02-19T19:48:33.409Z,0.61
2019-02-19T19:53:42.636Z,0.51
2019-02-19T19:58:53.166Z,0.37
2019-02-19T20:03:52.487Z,0.39
2019-02-19T20:09:01.724Z,0.29
2019-02-19T20:14:10.768Z,0.44
2019-02-19T20:19:20.099Z,0.34
2019-02-19T20:24:29.387Z,0.45
2019-02-19T20:29:38.911Z,0.56
2019-02-19T20:34:48.401Z,0.38
2019-02-19T20:39:59.184Z,0.44
2019-02-19T20:44:58.169Z,0.43
2019-02-19T20:50:07.374Z,0.49
2019-02-19T20:55:16.421Z,0.46
2019-02-19T21:00:25.547Z,0.41
2019-02-19T21:05:34.602Z,0.46
2019-02-19T21:10:47.688Z,0.29
2019-02-19T21:15:46.746Z,0.53
2019-02-19T21:20:55.900Z,0.51
2019-02-19T21:26:05.650Z,0.36
2019-02-19T21:31:15.067Z,0.52
2019-02-19T21:36:24.429Z,0.47
2019-02-19T21:41:37.501Z,0.41
2019-02-19T21:46:36.969Z,0.40
2019-02-19T21:51:53.927Z,0.41
2019-02-19T21:56:55.614Z,0.45
2019-02-19T22:02:16.100Z,0.41
2019-02-19T22:07:07.168Z,0.41
2019-02-19T22:12:16.900Z,0.51
2019-02-19T22:17:26.602Z,0.33
2019-02-19T22:22:36.686Z,0.38
2019-02-19T22:27:34.902Z,0.42
2019-02-19T22:32:44.234Z,0.37
2019-02-19T22:37:53.390Z,0.37
2019-02-19T22:43:02.053Z,0.33
2019-02-19T22:48:11.581Z,0.43
2019-02-19T22:53:26.166Z,0.36
2019-02-19T22:58:26.195Z,0.31
2019-02-19T23:03:32.139Z,0.32
2019-02-19T23:08:31.118Z,0.32
2019-02-19T23:13:44.027Z,0.27
2019-02-19T23:18:43.042Z,0.35
2019-02-19T23:23:52.175Z,0.25
2019-02-19T23:29:01.467Z,0.35
2019-02-19T23:34:11.239Z,0.31
2019-02-19T23:39:32.079Z,0.45
2019-02-19T23:44:23.278Z,0.25
2019-02-19T23:49:22.978Z,0.25
2019-02-19T23:54:32.964Z,0.24
2019-02-19T23:59:42.001Z,0.32
